DTW weather

Detroit Metropolitan Wayne County Airport
Detroit, Michigan, United States

Public forecast

Using degrees Fahrenheit for public forecast. Weather courtesy of forecast.io.

Current aviation weather report (METAR) for Detroit Metropolitan Wayne County Airport

Retrieved 2020/04/03 19:53 UTC (24 minutes ago):

KDTW 031953Z VRB06KT 10SM CLR 17/M06 A3003 RMK AO2 SLP171 T01721061

Aviation forecast (TAF) for Detroit Metropolitan Wayne County Airport

Retrieved 2020/04/03 18:22 UTC (2 hours ago):

TAF KDTW 031720Z 0318/0424 02006KT P6SM SCT250 FM041300 16005KT P6SM BKN250